createdAt,value
2018-07-04T00:02:31.101Z,101479.09
2018-07-04T00:05:10.716Z,101478.99
2018-07-04T00:07:50.212Z,101476.08
2018-07-04T00:10:29.767Z,101477.37
2018-07-04T00:13:09.473Z,101480.97
2018-07-04T00:15:48.993Z,101485.98
2018-07-04T00:18:28.626Z,101492.04
2018-07-04T00:21:08.248Z,101490.30
2018-07-04T00:23:47.805Z,101494.16
2018-07-04T00:26:27.457Z,101493.00
2018-07-04T00:29:06.956Z,101497.44
2018-07-04T00:31:46.617Z,101495.80
2018-07-04T00:34:26.271Z,101494.87
2018-07-04T00:37:05.818Z,101492.34
2018-07-04T00:39:45.391Z,101493.14
2018-07-04T00:42:24.976Z,101491.42
2018-07-04T00:45:04.644Z,101489.11
2018-07-04T00:47:44.175Z,101491.53
2018-07-04T00:50:23.828Z,101482.25
2018-07-04T00:53:03.464Z,101483.54
2018-07-04T00:55:42.984Z,101480.05
2018-07-04T00:58:22.596Z,101489.89
2018-07-04T01:01:02.208Z,101489.78
2018-07-04T01:03:41.623Z,101495.00
2018-07-04T01:06:21.220Z,101499.06
2018-07-04T01:09:00.803Z,101491.17
2018-07-04T01:11:40.332Z,101497.20
2018-07-04T01:14:19.916Z,101497.38
2018-07-04T01:16:59.568Z,101500.15
2018-07-04T01:19:39.153Z,101493.65
2018-07-04T01:22:18.668Z,101495.28
2018-07-04T01:24:58.146Z,101505.47
2018-07-04T01:27:37.656Z,101500.58
2018-07-04T01:30:17.331Z,101494.33
2018-07-04T01:32:56.815Z,101492.22
2018-07-04T01:35:36.378Z,101488.97
2018-07-04T01:38:15.926Z,101490.23
2018-07-04T01:40:55.511Z,101480.84
2018-07-04T01:43:35.147Z,101484.42
2018-07-04T01:46:14.784Z,101486.48
2018-07-04T01:48:54.384Z,101481.27
2018-07-04T01:51:33.924Z,101487.50
2018-07-04T01:54:13.451Z,101489.34
2018-07-04T01:56:53.307Z,101483.31
2018-07-04T01:59:32.688Z,101477.87
2018-07-04T02:02:12.265Z,101485.75
2018-07-04T02:04:51.859Z,101486.41
2018-07-04T02:07:31.548Z,101480.95
2018-07-04T02:10:11.145Z,101484.08
2018-07-04T02:12:50.580Z,101483.96
2018-07-04T02:15:30.240Z,101482.77
2018-07-04T02:18:09.746Z,101488.08
2018-07-04T02:20:49.285Z,101489.66
2018-07-04T02:23:28.924Z,101484.31
2018-07-04T02:26:08.544Z,101483.37
2018-07-04T02:28:48.097Z,101490.75
2018-07-04T02:31:27.757Z,101483.17
2018-07-04T02:34:07.160Z,101478.84
2018-07-04T02:36:46.701Z,101480.67
2018-07-04T02:39:26.340Z,101476.95
2018-07-04T02:42:05.983Z,101484.58
2018-07-04T02:44:45.520Z,101494.05
2018-07-04T02:47:27.648Z,101488.36
2018-07-04T02:50:07.790Z,101489.84
2018-07-04T02:52:47.757Z,101479.17
2018-07-04T02:55:27.371Z,101485.89
2018-07-04T02:58:07.987Z,101481.91
2018-07-04T03:00:47.311Z,101483.73
2018-07-04T03:03:27.103Z,101479.43
2018-07-04T03:06:06.605Z,101479.52
2018-07-04T03:08:46.064Z,101485.64
2018-07-04T03:11:25.528Z,101481.81
2018-07-04T03:14:05.028Z,101484.37
2018-07-04T03:16:44.623Z,101479.95
2018-07-04T03:19:23.999Z,101479.47
2018-07-04T03:22:03.409Z,101475.09
2018-07-04T03:24:43.000Z,101476.78
2018-07-04T03:27:22.514Z,101484.89
2018-07-04T03:30:01.999Z,101481.86
2018-07-04T03:32:41.543Z,101477.00
2018-07-04T03:35:21.052Z,101473.66
2018-07-04T03:38:00.691Z,101466.55
2018-07-04T03:40:40.112Z,101473.61
2018-07-04T03:43:19.660Z,101471.95
2018-07-04T03:45:59.217Z,101469.44
2018-07-04T03:48:38.868Z,101468.84
2018-07-04T03:51:18.500Z,101475.04
2018-07-04T03:53:57.928Z,101474.70
2018-07-04T03:56:37.405Z,101472.97
2018-07-04T03:59:16.922Z,101474.61
2018-07-04T04:01:56.353Z,101476.47
2018-07-04T04:04:35.862Z,101474.48
2018-07-04T04:07:15.504Z,101478.66
2018-07-04T04:09:54.897Z,101471.40
2018-07-04T04:12:34.392Z,101467.59
2018-07-04T04:15:13.872Z,101474.10
2018-07-04T04:17:53.204Z,101476.70
2018-07-04T04:20:32.596Z,101474.96
2018-07-04T04:23:12.037Z,101479.27
2018-07-04T04:25:51.540Z,101472.48
2018-07-04T04:28:31.065Z,101473.31
2018-07-04T04:31:10.552Z,101479.98
2018-07-04T04:33:50.127Z,101474.45
2018-07-04T04:36:29.625Z,101480.56
2018-07-04T04:39:09.272Z,101476.89
2018-07-04T04:41:48.809Z,101476.92
2018-07-04T04:44:28.452Z,101475.56
2018-07-04T04:47:07.988Z,101483.02
2018-07-04T04:49:47.524Z,101470.91
2018-07-04T04:52:27.000Z,101469.88
2018-07-04T04:55:06.495Z,101477.00
2018-07-04T04:57:45.928Z,101482.59
2018-07-04T05:00:25.479Z,101477.39
2018-07-04T05:03:04.900Z,101475.23
2018-07-04T05:05:44.353Z,101474.07
2018-07-04T05:08:23.977Z,101471.58
2018-07-04T05:11:03.633Z,101467.41
2018-07-04T05:13:43.231Z,101465.44
2018-07-04T05:16:22.800Z,101463.22
2018-07-04T05:19:02.424Z,101466.56
2018-07-04T05:21:41.855Z,101467.00
2018-07-04T05:24:21.483Z,101468.36
2018-07-04T05:27:01.093Z,101472.88
2018-07-04T05:29:40.642Z,101470.63
2018-07-04T05:32:20.236Z,101468.55
2018-07-04T05:34:59.570Z,101467.34
2018-07-04T05:37:39.195Z,101475.44
2018-07-04T05:40:18.880Z,101479.56
2018-07-04T05:42:58.352Z,101480.08
2018-07-04T05:45:37.953Z,101477.95
2018-07-04T05:48:17.559Z,101481.37
2018-07-04T05:50:57.129Z,101477.47
2018-07-04T05:53:36.712Z,101480.89
2018-07-04T05:56:16.341Z,101480.68
2018-07-04T05:58:55.949Z,101484.00
2018-07-04T06:01:35.612Z,101479.20
2018-07-04T06:04:15.198Z,101473.48
2018-07-04T06:06:54.993Z,101474.77
2018-07-04T06:09:34.384Z,101474.25
2018-07-04T06:12:13.974Z,101473.42
2018-07-04T06:14:53.610Z,101472.97
2018-07-04T06:17:33.232Z,101464.67
2018-07-04T06:20:12.728Z,101470.75
2018-07-04T06:22:52.822Z,101466.19
2018-07-04T06:25:32.407Z,101470.18
2018-07-04T06:28:12.069Z,101470.19
2018-07-04T06:30:51.632Z,101472.66
2018-07-04T06:33:31.291Z,101476.47
2018-07-04T06:36:10.796Z,101467.25
2018-07-04T06:38:37.859Z,101469.45
2018-07-04T06:41:04.927Z,101467.39
2018-07-04T06:43:31.995Z,101467.34
2018-07-04T06:45:59.088Z,101453.66
2018-07-04T06:48:26.249Z,101462.31
2018-07-04T06:50:53.326Z,101463.25
2018-07-04T06:53:20.414Z,101461.14
2018-07-04T06:55:47.480Z,101461.66
2018-07-04T06:58:14.552Z,101464.18
2018-07-04T07:00:41.620Z,101461.61
2018-07-04T07:03:21.008Z,101457.70
2018-07-04T07:06:00.556Z,101456.40
2018-07-04T07:08:40.278Z,101459.79
2018-07-04T07:11:19.684Z,101454.88
2018-07-04T07:13:59.278Z,101443.70
2018-07-04T07:16:38.904Z,101448.60
2018-07-04T07:19:18.885Z,101448.74
2018-07-04T07:21:58.224Z,101447.00
2018-07-04T07:24:37.680Z,101451.66
2018-07-04T07:27:17.077Z,101451.05
2018-07-04T07:29:56.623Z,101448.13
2018-07-04T07:32:36.158Z,101443.31
2018-07-04T07:35:15.792Z,101437.29
2018-07-04T07:37:55.279Z,101435.98
2018-07-04T07:40:34.749Z,101437.94
2018-07-04T07:43:14.230Z,101436.84
2018-07-04T07:45:53.632Z,101437.16
2018-07-04T07:48:33.260Z,101436.87
2018-07-04T07:51:12.880Z,101441.00
2018-07-04T07:53:52.586Z,101436.25
2018-07-04T07:56:32.196Z,101440.90
2018-07-04T07:59:11.894Z,101429.43
2018-07-04T08:01:51.428Z,101431.06
2018-07-04T08:04:30.892Z,101430.66
2018-07-04T08:07:10.364Z,101428.62
2018-07-04T08:09:50.000Z,101430.66
2018-07-04T08:12:29.584Z,101427.02
2018-07-04T08:15:09.169Z,101422.33
2018-07-04T08:17:48.637Z,101423.87
2018-07-04T08:20:28.164Z,101418.08
2018-07-04T08:23:07.668Z,101417.97
2018-07-04T08:25:47.237Z,101416.61
2018-07-04T08:28:26.623Z,101407.93
2018-07-04T08:31:06.334Z,101410.59
2018-07-04T08:33:45.949Z,101410.07
2018-07-04T08:36:25.490Z,101412.31
2018-07-04T08:39:04.962Z,101409.16
2018-07-04T08:41:44.472Z,101405.77
2018-07-04T08:44:24.079Z,101404.33
2018-07-04T08:47:03.660Z,101405.55
2018-07-04T08:49:43.228Z,101409.75
2018-07-04T08:52:22.708Z,101402.10
2018-07-04T08:55:02.163Z,101402.16
2018-07-04T08:57:41.721Z,101411.88
2018-07-04T09:00:21.224Z,101408.55
2018-07-04T09:03:00.672Z,101402.52
2018-07-04T09:05:40.356Z,101405.36
2018-07-04T09:08:19.775Z,101410.70
2018-07-04T09:10:59.083Z,101402.38
2018-07-04T09:13:38.512Z,101400.49
2018-07-04T09:16:18.009Z,101398.56
2018-07-04T09:18:57.637Z,101397.02
2018-07-04T09:21:37.239Z,101395.30
2018-07-04T09:24:16.868Z,101395.85
2018-07-04T09:26:56.206Z,101393.45
2018-07-04T09:29:35.720Z,101390.06
2018-07-04T09:32:15.125Z,101389.25
2018-07-04T09:34:54.642Z,101390.57
2018-07-04T09:37:34.193Z,101380.20
2018-07-04T09:40:13.765Z,101384.92
2018-07-04T09:42:53.088Z,101386.70
2018-07-04T09:45:32.560Z,101379.65
2018-07-04T09:48:12.080Z,101380.38
2018-07-04T09:50:51.669Z,101384.27
2018-07-04T09:53:31.164Z,101383.81
2018-07-04T09:56:10.844Z,101384.93
2018-07-04T09:58:50.465Z,101378.93
2018-07-04T10:01:30.005Z,101377.95
2018-07-04T10:04:09.404Z,101382.59
2018-07-04T10:06:49.080Z,101384.62
2018-07-04T10:09:28.736Z,101380.73
2018-07-04T10:12:08.208Z,101374.62
2018-07-04T10:14:47.912Z,101378.43
2018-07-04T10:17:27.361Z,101375.14
2018-07-04T10:20:06.980Z,101366.42
2018-07-04T10:22:46.487Z,101362.67
2018-07-04T10:25:26.000Z,101356.19
2018-07-04T10:28:05.500Z,101353.36
2018-07-04T10:30:44.985Z,101356.05
2018-07-04T10:33:24.580Z,101359.65
2018-07-04T10:36:04.096Z,101350.19
2018-07-04T10:38:43.658Z,101354.36
2018-07-04T10:41:23.118Z,101348.63
2018-07-04T10:44:02.644Z,101348.96
2018-07-04T10:46:42.178Z,101353.56
2018-07-04T10:49:21.806Z,101347.23
2018-07-04T10:52:01.580Z,101352.20
2018-07-04T10:54:41.176Z,101345.98
2018-07-04T10:57:20.840Z,101339.05
2018-07-04T11:00:00.257Z,101335.53
2018-07-04T11:02:39.884Z,101336.20
2018-07-04T11:05:19.468Z,101325.35
2018-07-04T11:07:59.043Z,101326.08
2018-07-04T11:10:38.547Z,101324.95
2018-07-04T11:13:18.105Z,101338.02
2018-07-04T11:15:57.602Z,101335.77
2018-07-04T11:18:37.183Z,101330.48
2018-07-04T11:21:16.703Z,101332.91
2018-07-04T11:23:56.164Z,101334.53
2018-07-04T11:26:35.691Z,101328.43
2018-07-04T11:29:15.188Z,101331.41
2018-07-04T11:31:54.622Z,101335.53
2018-07-04T11:34:34.242Z,101324.53
2018-07-04T11:37:13.622Z,101315.95
2018-07-04T11:39:53.127Z,101317.66
2018-07-04T11:42:32.640Z,101319.03
2018-07-04T11:45:12.228Z,101317.83
2018-07-04T11:47:39.309Z,101319.55
2018-07-04T11:50:06.389Z,101318.59
2018-07-04T11:52:33.481Z,101303.70
2018-07-04T11:55:00.751Z,101304.31
2018-07-04T11:57:27.852Z,101309.06
2018-07-04T11:59:54.942Z,101305.86
2018-07-04T12:02:22.032Z,101305.97
2018-07-04T12:05:01.526Z,101311.58
2018-07-04T12:07:28.603Z,101312.30
2018-07-04T12:09:55.692Z,101316.83
2018-07-04T12:12:22.769Z,101319.14
2018-07-04T12:14:49.882Z,101314.25
2018-07-04T12:17:16.952Z,101315.03
2018-07-04T12:19:44.038Z,101311.92
2018-07-04T12:22:11.121Z,101311.37
2018-07-04T12:24:38.204Z,101306.86
2018-07-04T12:27:05.277Z,101300.11
2018-07-04T12:29:32.393Z,101304.83
2018-07-04T12:31:59.499Z,101297.26
2018-07-04T12:34:26.544Z,101304.84
2018-07-04T12:36:53.625Z,101304.94
2018-07-04T12:39:20.700Z,101303.08
2018-07-04T12:41:47.788Z,101297.58
2018-07-04T12:44:14.863Z,101297.11
2018-07-04T12:46:41.954Z,101295.11
2018-07-04T12:49:09.036Z,101296.34
2018-07-04T12:51:36.118Z,101288.00
2018-07-04T12:54:08.811Z,101294.27
2018-07-04T12:56:48.106Z,101286.62
2018-07-04T12:59:27.581Z,101280.31
2018-07-04T13:02:07.076Z,101270.55
2018-07-04T13:04:46.700Z,101275.26
2018-07-04T13:07:26.403Z,101276.63
2018-07-04T13:10:05.853Z,101266.47
2018-07-04T13:12:45.316Z,101265.16
2018-07-04T13:15:24.907Z,101265.03
2018-07-04T13:18:04.527Z,101260.73
2018-07-04T13:20:44.055Z,101257.41
2018-07-04T13:23:23.700Z,101263.11
2018-07-04T13:26:03.241Z,101258.84
2018-07-04T13:28:42.784Z,101254.86
2018-07-04T13:31:22.392Z,101248.73
2018-07-04T13:34:02.049Z,101247.42
2018-07-04T13:36:41.494Z,101243.27
2018-07-04T13:39:21.032Z,101235.11
2018-07-04T13:42:00.518Z,101235.02
2018-07-04T13:44:39.890Z,101229.70
2018-07-04T13:47:19.454Z,101230.58
2018-07-04T13:49:58.896Z,101226.89
2018-07-04T13:52:38.521Z,101223.05
2018-07-04T13:55:18.098Z,101228.76
2018-07-04T13:57:57.619Z,101221.73
2018-07-04T14:00:37.236Z,101215.89
2018-07-04T14:03:16.867Z,101218.90
2018-07-04T14:05:56.328Z,101214.20
2018-07-04T14:08:35.940Z,101211.47
2018-07-04T14:11:15.585Z,101212.81
2018-07-04T14:13:55.252Z,101212.73
2018-07-04T14:16:35.722Z,101211.04
2018-07-04T14:19:15.316Z,101213.02
2018-07-04T14:21:54.897Z,101213.36
2018-07-04T14:24:34.504Z,101211.12
2018-07-04T14:27:14.071Z,101205.66
2018-07-04T14:29:53.639Z,101199.37
2018-07-04T14:32:33.328Z,101197.23
2018-07-04T14:35:12.960Z,101204.65
2018-07-04T14:37:52.514Z,101205.79
2018-07-04T14:40:32.110Z,101203.94
2018-07-04T14:43:11.597Z,101205.06
2018-07-04T14:45:51.117Z,101204.69
2018-07-04T14:48:30.576Z,101207.80
2018-07-04T14:51:10.129Z,101207.44
2018-07-04T14:53:49.766Z,101202.39
2018-07-04T14:56:29.370Z,101201.48
2018-07-04T14:59:08.794Z,101195.89
2018-07-04T15:01:48.143Z,101199.95
2018-07-04T15:04:27.929Z,101201.86
2018-07-04T15:07:07.395Z,101202.60
2018-07-04T15:09:47.059Z,101196.42
2018-07-04T15:12:26.753Z,101196.44
2018-07-04T15:15:06.174Z,101191.58
2018-07-04T15:17:45.812Z,101185.92
2018-07-04T15:20:25.456Z,101185.58
2018-07-04T15:23:04.944Z,101181.64
2018-07-04T15:25:44.524Z,101179.20
2018-07-04T15:28:23.894Z,101174.27
2018-07-04T15:31:03.397Z,101175.09
2018-07-04T15:33:42.942Z,101176.88
2018-07-04T15:36:22.476Z,101167.02
2018-07-04T15:39:02.088Z,101166.58
2018-07-04T15:41:41.659Z,101170.14
2018-07-04T15:44:21.295Z,101169.20
2018-07-04T15:47:00.864Z,101166.20
2018-07-04T15:49:40.277Z,101167.02
2018-07-04T15:52:19.700Z,101168.98
2018-07-04T15:54:59.252Z,101164.05
2018-07-04T15:57:38.848Z,101168.67
2018-07-04T16:00:18.431Z,101161.33
2018-07-04T16:02:58.038Z,101163.38
2018-07-04T16:05:37.772Z,101165.23
2018-07-04T16:08:17.484Z,101160.09
2018-07-04T16:10:57.107Z,101166.42
2018-07-04T16:13:36.737Z,101163.19
2018-07-04T16:16:16.293Z,101160.59
2018-07-04T16:18:55.769Z,101158.20
2018-07-04T16:21:35.468Z,101158.38
2018-07-04T16:24:15.071Z,101158.89
2018-07-04T16:26:54.600Z,101155.98
2018-07-04T16:29:34.198Z,101158.88
2018-07-04T16:32:13.657Z,101147.80
2018-07-04T16:34:53.484Z,101151.79
2018-07-04T16:37:33.142Z,101159.39
2018-07-04T16:40:12.740Z,101146.16
2018-07-04T16:42:52.385Z,101146.13
2018-07-04T16:45:31.919Z,101143.77
2018-07-04T16:48:11.493Z,101143.53
2018-07-04T16:50:51.136Z,101145.25
2018-07-04T16:53:30.628Z,101143.64
2018-07-04T16:56:10.248Z,101137.25
2018-07-04T16:58:49.743Z,101139.23
2018-07-04T17:01:29.296Z,101141.08
2018-07-04T17:04:08.774Z,101141.31
2018-07-04T17:06:48.230Z,101138.34
2018-07-04T17:09:27.827Z,101142.80
2018-07-04T17:12:07.449Z,101137.67
2018-07-04T17:14:47.028Z,101136.27
2018-07-04T17:17:26.592Z,101139.30
2018-07-04T17:20:06.560Z,101137.38
2018-07-04T17:22:45.991Z,101138.97
2018-07-04T17:25:25.502Z,101144.66
2018-07-04T17:28:05.152Z,101146.64
2018-07-04T17:30:44.628Z,101148.34
2018-07-04T17:33:24.561Z,101142.64
2018-07-04T17:36:03.943Z,101138.02
2018-07-04T17:38:43.461Z,101134.98
2018-07-04T17:41:23.141Z,101134.83
2018-07-04T17:44:02.680Z,101137.93
2018-07-04T17:46:42.218Z,101133.30
2018-07-04T17:49:21.799Z,101136.85
2018-07-04T17:52:01.128Z,101136.95
2018-07-04T17:54:40.608Z,101140.20
2018-07-04T17:57:20.106Z,101136.94
2018-07-04T17:59:59.547Z,101136.08
2018-07-04T18:02:38.936Z,101132.42
2018-07-04T18:05:18.437Z,101138.86
2018-07-04T18:07:57.965Z,101142.73
2018-07-04T18:10:37.488Z,101145.70
2018-07-04T18:13:17.137Z,101147.30
2018-07-04T18:15:56.776Z,101146.56
2018-07-04T18:18:36.287Z,101143.14
2018-07-04T18:21:21.351Z,101148.09
2018-07-04T18:24:00.989Z,101138.07
2018-07-04T18:26:40.434Z,101141.77
2018-07-04T18:29:20.138Z,101139.70
2018-07-04T18:31:59.680Z,101136.50
2018-07-04T18:34:39.138Z,101134.95
2018-07-04T18:37:18.687Z,101144.52
2018-07-04T18:39:58.201Z,101136.45
2018-07-04T18:42:37.781Z,101134.91
2018-07-04T18:45:17.356Z,101145.77
2018-07-04T18:47:56.923Z,101145.84
2018-07-04T18:50:36.663Z,101149.97
2018-07-04T18:53:16.355Z,101145.59
2018-07-04T18:55:56.584Z,101152.06
2018-07-04T18:58:36.189Z,101154.59
2018-07-04T19:01:16.296Z,101159.16
2018-07-04T19:03:55.950Z,101155.62
2018-07-04T19:06:35.503Z,101157.23
2018-07-04T19:09:14.838Z,101154.34
2018-07-04T19:11:54.236Z,101144.15
2018-07-04T19:14:33.602Z,101146.53
2018-07-04T19:17:12.944Z,101144.84
2018-07-04T19:19:52.453Z,101137.42
2018-07-04T19:22:32.005Z,101136.13
2018-07-04T19:25:11.533Z,101140.84
2018-07-04T19:27:51.108Z,101144.22
2018-07-04T19:30:30.684Z,101141.93
2018-07-04T19:33:09.989Z,101140.05
2018-07-04T19:35:49.513Z,101144.40
2018-07-04T19:38:28.948Z,101148.08
2018-07-04T19:41:08.649Z,101148.79
2018-07-04T19:43:48.277Z,101142.22
2018-07-04T19:46:27.840Z,101149.19
2018-07-04T19:49:07.365Z,101148.47
2018-07-04T19:51:46.800Z,101140.48
2018-07-04T19:54:26.336Z,101138.35
2018-07-04T19:57:06.006Z,101138.08
2018-07-04T19:59:45.656Z,101139.98
2018-07-04T20:02:25.161Z,101137.63
2018-07-04T20:05:04.763Z,101140.20
2018-07-04T20:07:44.340Z,101134.64
2018-07-04T20:10:23.980Z,101134.33
2018-07-04T20:13:03.477Z,101133.59
2018-07-04T20:15:42.968Z,101134.02
2018-07-04T20:18:22.445Z,101137.89
2018-07-04T20:21:01.989Z,101136.13
2018-07-04T20:23:41.633Z,101139.58
2018-07-04T20:26:21.185Z,101144.66
2018-07-04T20:29:00.789Z,101148.34
2018-07-04T20:31:40.296Z,101147.38
2018-07-04T20:34:19.887Z,101145.60
2018-07-04T20:36:59.497Z,101145.63
2018-07-04T20:39:39.007Z,101149.27
2018-07-04T20:42:18.569Z,101147.49
2018-07-04T20:44:58.067Z,101142.91
2018-07-04T20:47:37.544Z,101155.17
2018-07-04T20:50:17.720Z,101152.58
2018-07-04T20:52:57.435Z,101152.80
2018-07-04T20:55:37.148Z,101161.06
2018-07-04T20:58:16.701Z,101162.06
2018-07-04T21:00:56.305Z,101172.77
2018-07-04T21:03:35.972Z,101172.37
2018-07-04T21:06:15.629Z,101169.59
2018-07-04T21:08:55.255Z,101177.22
2018-07-04T21:11:34.917Z,101176.02
2018-07-04T21:14:14.556Z,101175.64
2018-07-04T21:16:54.236Z,101167.96
2018-07-04T21:19:33.924Z,101171.58
2018-07-04T21:22:13.576Z,101164.74
2018-07-04T21:24:53.206Z,101166.56
2018-07-04T21:27:32.700Z,101163.36
2018-07-04T21:30:12.148Z,101167.38
2018-07-04T21:32:51.712Z,101171.57
2018-07-04T21:35:31.248Z,101170.77
2018-07-04T21:38:10.820Z,101173.98
2018-07-04T21:40:50.454Z,101178.80
2018-07-04T21:43:29.948Z,101176.20
2018-07-04T21:46:09.533Z,101178.42
2018-07-04T21:48:48.959Z,101179.40
2018-07-04T21:51:28.555Z,101170.34
2018-07-04T21:54:08.009Z,101171.31
2018-07-04T21:56:47.488Z,101178.48
2018-07-04T21:59:26.938Z,101166.20
2018-07-04T22:02:06.451Z,101173.19
2018-07-04T22:04:45.892Z,101176.58
2018-07-04T22:07:25.484Z,101179.37
2018-07-04T22:10:05.168Z,101182.36
2018-07-04T22:12:44.812Z,101188.16
2018-07-04T22:15:24.349Z,101184.70
2018-07-04T22:18:03.888Z,101182.06
2018-07-04T22:20:43.410Z,101178.02
2018-07-04T22:23:23.071Z,101179.41
2018-07-04T22:26:02.708Z,101180.98
2018-07-04T22:28:42.304Z,101176.09
2018-07-04T22:31:21.860Z,101174.03
2018-07-04T22:34:01.512Z,101175.41
2018-07-04T22:36:41.067Z,101171.34
2018-07-04T22:39:20.613Z,101180.13
2018-07-04T22:42:00.172Z,101175.08
2018-07-04T22:44:39.776Z,101172.03
2018-07-04T22:47:19.428Z,101168.79
2018-07-04T22:49:59.032Z,101170.34
2018-07-04T22:52:38.681Z,101163.48
2018-07-04T22:55:18.183Z,101161.02
2018-07-04T22:57:57.640Z,101159.40
2018-07-04T23:00:37.136Z,101159.91
2018-07-04T23:03:16.552Z,101150.45
2018-07-04T23:05:56.114Z,101153.73
2018-07-04T23:08:35.615Z,101154.69
2018-07-04T23:11:15.240Z,101161.25
2018-07-04T23:13:54.865Z,101155.78
2018-07-04T23:16:34.427Z,101150.31
2018-07-04T23:19:13.868Z,101137.61
2018-07-04T23:21:53.455Z,101148.38
2018-07-04T23:24:33.072Z,101149.09
2018-07-04T23:27:12.637Z,101146.81
2018-07-04T23:29:52.179Z,101150.33
2018-07-04T23:32:31.820Z,101156.69
2018-07-04T23:35:11.335Z,101161.02
2018-07-04T23:37:51.008Z,101164.72
2018-07-04T23:40:30.516Z,101163.41
2018-07-04T23:43:09.996Z,101171.12
2018-07-04T23:45:49.620Z,101174.47
2018-07-04T23:48:29.109Z,101172.60
2018-07-04T23:51:08.677Z,101175.95
2018-07-04T23:53:48.256Z,101174.28
2018-07-04T23:56:27.808Z,101164.23
2018-07-04T23:59:07.483Z,101175.75
